Time;durP1;ratioP1;P1;durP2;ratioP2;P2;SDS_P1;SDS_P2;PMS_P1;PMS_P2;Temp;Humidity;BMP_temperature;BMP_pressure;BME280_temperature;BME280_humidity;BME280_pressure;Samples;Min_cycle;Max_cycle;Signal;HPM_P1;HPM_P2
2023/03/13 00:00:31;;;;;;;20.02;9.23;;;;;;;7.89;99.27;98921.41;5094477;28;20036;-94
2023/03/13 00:02:57;;;;;;;19.25;9.23;;;;;;;7.82;100.00;98925.06;5094680;28;20050;-95
2023/03/13 00:05:24;;;;;;;17.40;8.18;;;;;;;7.68;100.00;98916.44;5094184;28;20032;-94
2023/03/13 00:07:50;;;;;;;15.93;7.60;;;;;;;7.42;100.00;98888.53;5094604;28;20040;-94
2023/03/13 00:10:16;;;;;;;17.88;9.25;;;;;;;7.42;100.00;98909.72;5094439;28;20043;-94
2023/03/13 00:12:42;;;;;;;24.90;10.43;;;;;;;7.39;100.00;98910.63;5094330;28;20039;-95
2023/03/13 00:15:09;;;;;;;18.27;9.63;;;;;;;7.27;100.00;98909.88;5094212;28;20072;-93
2023/03/13 00:17:35;;;;;;;19.98;8.80;;;;;;;7.22;100.00;98914.34;5094249;28;20052;-94
2023/03/13 00:20:01;;;;;;;18.38;7.88;;;;;;;7.16;100.00;98905.59;5094327;28;20111;-94
2023/03/13 00:22:28;;;;;;;19.17;9.00;;;;;;;7.26;100.00;98922.22;5094168;28;20060;-95
2023/03/13 00:24:54;;;;;;;14.80;7.95;;;;;;;7.19;100.00;98921.41;5094215;28;20044;-94
2023/03/13 00:27:19;;;;;;;21.23;8.65;;;;;;;7.07;100.00;98920.66;5094264;28;20040;-94
2023/03/13 00:29:45;;;;;;;22.02;9.23;;;;;;;7.03;100.00;98924.25;5093925;28;20044;-93
2023/03/13 00:32:11;;;;;;;18.30;8.82;;;;;;;6.96;100.00;98918.13;5093557;28;20039;-94
2023/03/13 00:34:37;;;;;;;16.63;6.72;;;;;;;6.93;100.00;98928.75;5093890;28;20443;-94
2023/03/13 00:37:03;;;;;;;12.48;6.65;;;;;;;6.94;100.00;98934.03;5094114;28;20051;-93
2023/03/13 00:39:30;;;;;;;14.65;7.30;;;;;;;6.92;100.00;98927.88;5093844;28;20484;-93
2023/03/13 00:41:56;;;;;;;18.27;7.10;;;;;;;6.91;100.00;98939.31;5085741;28;20044;-93
2023/03/13 00:44:22;;;;;;;13.82;6.28;;;;;;;6.85;100.00;98952.59;5093653;28;20498;-94
2023/03/13 00:46:48;;;;;;;16.58;7.28;;;;;;;6.74;100.00;98939.50;5093576;28;20078;-94
2023/03/13 00:49:14;;;;;;;12.45;6.50;;;;;;;6.64;100.00;98929.91;5093471;28;20101;-94
2023/03/13 00:51:40;;;;;;;14.35;6.97;;;;;;;6.73;100.00;98950.09;5093531;28;20506;-95
2023/03/13 00:54:05;;;;;;;13.13;7.38;;;;;;;6.45;100.00;98920.38;5093727;28;20040;-93
2023/03/13 00:56:33;;;;;;;16.65;7.53;;;;;;;6.52;100.00;98932.63;5093678;28;20044;-93
2023/03/13 00:59:00;;;;;;;20.45;7.20;;;;;;;6.60;100.00;98962.53;5093451;28;20044;-95
2023/03/13 01:01:28;;;;;;;21.13;8.70;;;;;;;6.45;100.00;98934.44;5093181;28;20040;-94
2023/03/13 01:03:56;;;;;;;19.30;8.73;;;;;;;6.56;100.00;98959.00;5093110;28;20040;-94
2023/03/13 01:06:24;;;;;;;17.20;7.88;;;;;;;6.36;100.00;98943.31;5093053;28;20060;-94
2023/03/13 01:08:51;;;;;;;11.55;6.93;;;;;;;6.28;100.00;98950.41;5093329;28;20397;-94
2023/03/13 01:11:18;;;;;;;11.57;6.50;;;;;;;6.20;100.00;98939.03;5093351;28;20043;-93
2023/03/13 01:13:48;;;;;;;16.23;7.68;;;;;;;6.25;100.00;98939.03;5093241;28;20501;-94
2023/03/13 01:16:16;;;;;;;12.57;6.90;;;;;;;6.31;100.00;98966.25;5093214;28;20047;-93
2023/03/13 01:18:44;;;;;;;13.27;6.72;;;;;;;6.17;100.00;98946.97;5093278;28;20089;-93
2023/03/13 01:21:11;;;;;;;14.20;7.53;;;;;;;6.23;100.00;98965.44;5093436;28;20054;-93
2023/03/13 01:23:37;;;;;;;15.90;8.65;;;;;;;6.10;100.00;98956.69;5093611;28;20040;-93
2023/03/13 01:26:04;;;;;;;16.27;8.45;;;;;;;6.08;100.00;98954.97;5093356;28;20051;-94
2023/03/13 01:28:30;;;;;;;13.98;8.05;;;;;;;6.14;100.00;98978.69;5092939;28;20105;-94
2023/03/13 01:30:57;;;;;;;18.88;7.65;;;;;;;6.09;100.00;98977.81;5092636;28;20036;-93
2023/03/13 01:33:23;;;;;;;17.65;8.30;;;;;;;5.91;100.00;98960.28;5092902;28;20044;-94
2023/03/13 01:35:49;;;;;;;14.65;8.68;;;;;;;5.90;100.00;98961.19;5093160;28;20055;-93
2023/03/13 01:38:15;;;;;;;14.40;8.77;;;;;;;5.98;100.00;98975.25;5093114;28;20068;-93
2023/03/13 01:40:42;;;;;;;17.25;8.32;;;;;;;5.93;100.00;98966.44;5093007;28;20050;-95
2023/03/13 01:43:17;;;;;;;15.57;8.70;;;;;;;5.78;100.00;98953.34;5093080;28;20147;-94
2023/03/13 01:46:12;;;;;;;14.70;8.02;;;;;;;5.86;100.00;98976.16;5092605;28;20047;-92
2023/03/13 01:48:44;;;;;;;12.65;7.45;;;;;;;5.73;100.00;98956.00;5083249;28;20521;-93
2023/03/13 01:51:15;;;;;;;14.65;8.02;;;;;;;5.77;100.00;98973.56;5093111;28;20131;-93
2023/03/13 01:53:45;;;;;;;14.68;7.45;;;;;;;5.70;100.00;98956.91;5092808;28;20089;-94
2023/03/13 01:56:13;;;;;;;;;;;;;;;5.76;100.00;98977.94;5093288;28;20131;-93
2023/03/13 01:58:39;;;;;;;14.13;7.88;;;;;;;5.63;100.00;98957.78;5092975;28;20346;-94
2023/03/13 02:01:08;;;;;;;13.23;7.43;;;;;;;5.67;100.00;98963.94;5092957;28;20078;-94
2023/03/13 02:03:35;;;;;;;11.82;7.03;;;;;;;5.61;100.00;98951.63;5092912;28;20422;-93
2023/03/13 02:06:04;;;;;;;12.10;6.90;;;;;;;5.71;100.00;98968.31;5092912;28;20485;-94
2023/03/13 02:08:34;;;;;;;12.02;5.93;;;;;;;5.64;100.00;98958.66;5092737;28;20074;-93
2023/03/13 02:11:09;;;;;;;10.70;6.57;;;;;;;5.64;100.00;98964.84;5093060;28;20040;-94
2023/03/13 02:13:35;;;;;;;14.68;7.28;;;;;;;5.58;100.00;98974.53;5072695;28;20052;-94
2023/03/13 02:16:01;;;;;;;12.68;7.40;;;;;;;5.58;100.00;98978.03;5082783;28;20051;-94
2023/03/13 02:18:29;;;;;;;12.35;6.95;;;;;;;5.55;100.00;98986.84;5096679;28;20463;-93
2023/03/13 02:21:06;;;;;;;12.80;7.13;;;;;;;5.57;100.00;98989.47;5097198;28;20040;-94
2023/03/13 02:23:38;;;;;;;13.90;6.18;;;;;;;5.52;100.00;98981.56;5096497;28;20039;-93
2023/03/13 02:26:05;;;;;;;12.38;6.78;;;;;;;5.54;100.00;99000.03;5096369;28;20056;-94
2023/03/13 02:28:33;;;;;;;13.15;6.20;;;;;;;5.48;100.00;98995.63;5096490;28;20401;-94
2023/03/13 02:31:00;;;;;;;12.48;6.82;;;;;;;5.50;100.00;99009.69;5096491;28;20382;-94
2023/03/13 02:33:29;;;;;;;9.02;5.60;;;;;;;5.34;100.00;98984.28;5096290;28;20067;-93
2023/03/13 02:35:55;;;;;;;11.40;6.07;;;;;;;5.46;100.00;99012.34;5096144;28;20070;-93
2023/03/13 02:38:25;;;;;;;9.52;6.25;;;;;;;5.40;100.00;98991.28;5096573;28;20047;-93
2023/03/13 02:40:52;;;;;;;9.90;5.85;;;;;;;5.42;100.00;99002.69;5096020;28;20032;-94
2023/03/13 02:43:25;;;;;;;10.40;5.20;;;;;;;5.32;100.00;98972.84;5096141;28;20036;-95
2023/03/13 02:46:02;;;;;;;10.95;5.28;;;;;;;5.52;100.00;99002.66;5096029;28;20520;-95
2023/03/13 02:48:32;;;;;;;13.07;5.78;;;;;;;5.52;100.00;98991.25;5096012;28;20040;-93
2023/03/13 02:50:58;;;;;;;10.75;5.97;;;;;;;5.46;100.00;98973.66;5082269;28;20040;-94
2023/03/13 02:53:24;;;;;;;7.97;5.63;;;;;;;5.59;100.00;99000.00;5096204;28;20075;-93
2023/03/13 02:55:50;;;;;;;9.60;5.00;;;;;;;5.43;100.00;98989.50;5096070;28;20140;-94
2023/03/13 02:58:16;;;;;;;10.52;5.60;;;;;;;5.52;100.00;99004.44;5095737;28;20063;-93
2023/03/13 03:00:44;;;;;;;11.27;6.32;;;;;;;5.54;100.00;99005.31;5095373;28;20101;-93
2023/03/13 03:03:10;;;;;;;9.75;6.35;;;;;;;5.55;100.00;99001.78;5095759;28;20139;-94
2023/03/13 03:05:36;;;;;;;9.45;5.68;;;;;;;5.42;100.00;98985.13;5086218;28;20067;-94
2023/03/13 03:08:01;;;;;;;12.20;5.72;;;;;;;5.40;100.00;98983.34;5095491;28;20498;-93
2023/03/13 03:10:27;;;;;;;9.57;5.80;;;;;;;5.34;100.00;98982.50;5095618;28;20044;-92
2023/03/13 03:12:53;;;;;;;9.70;5.63;;;;;;;5.43;100.00;99005.34;5095660;28;20497;-93
2023/03/13 03:15:19;;;;;;;9.07;5.50;;;;;;;5.36;100.00;98998.34;5095385;28;20036;-92
2023/03/13 03:17:46;;;;;;;12.57;6.30;;;;;;;5.44;100.00;99017.63;5095662;28;20040;-93
2023/03/13 03:20:12;;;;;;;12.55;6.78;;;;;;;5.22;100.00;98989.56;5095407;28;20063;-93
2023/03/13 03:22:39;;;;;;;10.23;6.05;;;;;;;5.25;100.00;98993.09;5095601;28;20796;-91
2023/03/13 03:25:07;;;;;;;9.88;5.85;;;;;;;5.32;100.00;99001.84;5095533;28;20425;-92
2023/03/13 03:27:33;;;;;;;8.70;5.85;;;;;;;5.43;100.00;99036.13;5095865;28;20055;-93
2023/03/13 03:29:59;;;;;;;10.90;6.00;;;;;;;5.36;100.00;99029.97;5094764;28;20051;-94
2023/03/13 03:32:25;;;;;;;11.32;5.57;;;;;;;5.27;100.00;99011.50;5095085;28;20516;-95
2023/03/13 03:34:52;;;;;;;8.88;5.20;;;;;;;5.25;100.00;99008.03;5095414;28;20139;-95
2023/03/13 03:37:18;;;;;;;8.60;5.60;;;;;;;5.27;100.00;99020.31;5095060;28;20047;-95
2023/03/13 03:39:43;;;;;;;9.07;5.70;;;;;;;5.36;100.00;99022.06;5095057;28;20402;-94
2023/03/13 03:42:09;;;;;;;7.78;5.40;;;;;;;5.42;100.00;99035.25;5095077;28;20047;-95
2023/03/13 03:44:35;;;;;;;9.63;5.60;;;;;;;5.28;100.00;99022.06;5095069;28;20066;-94
2023/03/13 03:47:01;;;;;;;10.32;5.90;;;;;;;5.39;100.00;99040.50;5094801;28;20075;-93
2023/03/13 03:49:27;;;;;;;9.50;6.05;;;;;;;5.31;100.00;99030.00;5095665;28;20413;-94
2023/03/13 03:51:54;;;;;;;10.20;6.00;;;;;;;5.27;100.00;99025.59;5095138;28;20460;-94
2023/03/13 03:54:20;;;;;;;9.23;5.43;;;;;;;5.31;100.00;99043.19;5095485;28;20052;-94
2023/03/13 03:56:46;;;;;;;10.57;6.18;;;;;;;5.30;100.00;99056.34;5094663;28;20101;-93
2023/03/13 03:59:11;;;;;;;8.18;5.53;;;;;;;5.30;100.00;99056.34;5094800;28;20441;-94
2023/03/13 04:01:37;;;;;;;9.55;6.05;;;;;;;5.35;100.00;99058.09;5094481;28;20066;-95
2023/03/13 04:04:03;;;;;;;11.25;5.88;;;;;;;5.17;100.00;99030.88;5094696;28;20060;-94
2023/03/13 04:06:29;;;;;;;9.38;5.20;;;;;;;5.26;100.00;99055.47;5094616;28;20397;-95
2023/03/13 04:08:56;;;;;;;8.52;5.50;;;;;;;5.15;100.00;99055.47;5094490;28;20036;-94
2023/03/13 04:11:22;;;;;;;8.63;5.70;;;;;;;5.19;100.00;99063.41;5094510;28;20105;-95
2023/03/13 04:13:48;;;;;;;8.55;5.93;;;;;;;5.15;100.00;99065.16;5094749;28;20439;-94
2023/03/13 04:16:14;;;;;;;9.88;5.28;;;;;;;4.94;100.00;99037.03;5094167;28;20040;-95
2023/03/13 04:18:40;;;;;;;9.02;5.70;;;;;;;4.92;100.00;99042.31;5094755;28;20477;-94
2023/03/13 04:21:06;;;;;;;8.07;5.63;;;;;;;5.03;100.00;99066.03;5094172;28;20098;-94
2023/03/13 04:23:32;;;;;;;10.15;5.80;;;;;;;5.06;100.00;99063.41;5094440;28;20047;-94
2023/03/13 04:26:00;;;;;;;8.68;5.60;;;;;;;5.05;100.00;99059.03;5094245;28;20089;-93
2023/03/13 04:28:25;;;;;;;9.55;5.00;;;;;;;4.98;100.00;99054.59;5094054;28;20409;-94
2023/03/13 04:30:55;;;;;;;11.18;5.28;;;;;;;5.00;100.00;99057.25;5093966;28;20043;-94
2023/03/13 04:33:22;;;;;;;9.35;5.57;;;;;;;5.09;100.00;99063.38;5094044;28;20391;-94
2023/03/13 04:35:47;;;;;;;11.13;5.72;;;;;;;4.91;100.00;99030.00;5128156;27;20043;-94
2023/03/13 04:38:13;;;;;;;9.60;5.60;;;;;;;4.90;100.00;99045.81;5093563;28;20044;-93
2023/03/13 04:40:39;;;;;;;9.13;5.78;;;;;;;4.93;100.00;99051.09;5094006;28;20086;-94
2023/03/13 04:43:06;;;;;;;9.10;5.50;;;;;;;4.85;100.00;99032.63;5093765;28;20078;-94
2023/03/13 04:45:32;;;;;;;10.25;5.68;;;;;;;4.85;100.00;99037.91;5093572;28;20044;-95
2023/03/13 04:47:58;;;;;;;7.38;4.88;;;;;;;4.84;100.00;99038.81;5093767;28;20044;-94
2023/03/13 04:50:24;;;;;;;8.70;5.70;;;;;;;4.97;100.00;99052.88;5093740;28;20106;-94
2023/03/13 04:52:50;;;;;;;7.97;5.35;;;;;;;4.86;100.00;99036.19;5093911;28;20147;-94
2023/03/13 04:55:16;;;;;;;10.30;5.28;;;;;;;4.84;100.00;99035.31;5093793;28;20081;-94
2023/03/13 04:57:42;;;;;;;12.27;5.53;;;;;;;4.84;100.00;99040.56;5093720;28;20043;-93
2023/03/13 05:00:10;;;;;;;7.97;5.10;;;;;;;4.72;100.00;99028.25;5093921;28;20127;-94
2023/03/13 05:02:36;;;;;;;10.70;6.07;;;;;;;4.70;100.00;99022.09;5093652;28;20052;-95
2023/03/13 05:05:02;;;;;;;9.02;5.65;;;;;;;4.93;100.00;99045.84;5093714;28;20273;-93
2023/03/13 05:07:28;;;;;;;9.85;5.32;;;;;;;4.87;100.00;99032.66;5093558;28;20529;-94
2023/03/13 05:09:54;;;;;;;9.13;6.15;;;;;;;4.93;100.00;99048.47;5093477;28;20036;-95
2023/03/13 05:12:20;;;;;;;10.95;6.30;;;;;;;4.98;100.00;99057.25;5093528;28;20050;-93
2023/03/13 05:14:46;;;;;;;10.40;6.38;;;;;;;5.01;100.00;99051.09;5093437;28;20054;-93
2023/03/13 05:17:13;;;;;;;11.88;6.72;;;;;;;4.90;100.00;99033.53;5093294;28;20040;-94
2023/03/13 05:19:39;;;;;;;10.35;6.07;;;;;;;5.06;100.00;99052.84;5093547;28;20044;-94
2023/03/13 05:22:05;;;;;;;10.98;5.70;;;;;;;5.09;100.00;99047.56;5093519;28;20073;-94
2023/03/13 05:24:31;;;;;;;9.95;6.43;;;;;;;5.18;100.00;99065.13;5093392;28;20044;-95
2023/03/13 05:26:57;;;;;;;8.48;6.38;;;;;;;5.06;100.00;99041.44;5093658;28;20062;-94
2023/03/13 05:29:22;;;;;;;14.63;6.00;;;;;;;4.98;100.00;99037.91;5093101;28;20040;-95
2023/03/13 05:31:48;;;;;;;12.25;6.03;;;;;;;5.01;100.00;99062.53;5093509;28;20130;-95
2023/03/13 05:34:16;;;;;;;9.63;5.70;;;;;;;4.92;100.00;99046.69;5093338;28;20520;-94
2023/03/13 05:36:41;;;;;;;10.00;5.60;;;;;;;4.90;100.00;99048.44;5093247;28;20044;-95
2023/03/13 05:39:07;;;;;;;9.20;6.13;;;;;;;4.97;100.00;99062.53;5093468;28;20054;-93
2023/03/13 05:41:33;;;;;;;10.15;5.43;;;;;;;4.83;100.00;99046.69;5093240;28;20387;-94
2023/03/13 05:43:59;;;;;;;9.07;5.70;;;;;;;4.95;100.00;99059.88;5093043;28;20489;-95
2023/03/13 05:46:25;;;;;;;8.80;5.60;;;;;;;4.84;100.00;99046.72;5093073;28;20115;-94
2023/03/13 05:48:51;;;;;;;8.73;5.20;;;;;;;5.05;100.00;99080.09;5093312;28;20497;-94
2023/03/13 05:51:19;;;;;;;8.80;5.60;;;;;;;4.96;100.00;99058.13;5095520;28;20440;-94
2023/03/13 05:53:45;;;;;;;9.77;5.03;;;;;;;5.07;100.00;99074.81;5097346;28;20408;-95
2023/03/13 05:56:11;;;;;;;8.75;5.63;;;;;;;5.00;100.00;99052.84;5097201;28;20134;-94
2023/03/13 05:58:36;;;;;;;9.82;5.55;;;;;;;5.24;100.00;99078.31;5099511;28;20144;-95
2023/03/13 06:01:06;;;;;;;11.00;5.30;;;;;;;5.28;100.00;99066.03;5097363;28;20051;-95
2023/03/13 06:03:32;;;;;;;11.32;5.55;;;;;;;5.27;100.00;99061.63;5093129;28;20060;-95
2023/03/13 06:05:58;;;;;;;9.70;6.78;;;;;;;5.40;100.00;99081.84;5096864;28;20071;-94
2023/03/13 06:08:26;;;;;;;11.40;6.20;;;;;;;5.60;100.00;99078.28;5097012;28;20068;-94
2023/03/13 06:10:52;;;;;;;10.68;8.30;;;;;;;5.50;100.00;99070.38;5097174;28;20577;-94
2023/03/13 06:13:18;;;;;;;12.32;8.77;;;;;;;5.81;100.00;99086.13;5096828;28;20134;-94
2023/03/13 06:15:50;;;;;;;13.68;8.82;;;;;;;5.90;100.00;99091.41;5096801;28;20083;-93
2023/03/13 06:18:16;;;;;;;14.90;8.80;;;;;;;5.88;100.00;99087.00;5096586;28;20067;-95
2023/03/13 06:20:42;;;;;;;13.85;8.18;;;;;;;5.97;100.00;99092.28;5097209;28;20059;-94
2023/03/13 06:23:07;;;;;;;12.30;7.80;;;;;;;6.05;100.00;99086.97;5098889;28;20044;-94
2023/03/13 06:25:35;;;;;;;11.02;7.93;;;;;;;6.14;100.00;99084.31;5098064;28;20051;-93
2023/03/13 06:28:01;;;;;;;12.35;8.15;;;;;;;6.01;100.00;99059.72;5097943;28;20821;-94
2023/03/13 06:30:26;;;;;;;12.18;7.68;;;;;;;6.17;100.00;99085.16;5097313;28;20055;-95
2023/03/13 06:32:52;;;;;;;11.27;6.90;;;;;;;6.07;100.00;99050.88;5096527;28;20039;-95
2023/03/13 06:35:18;;;;;;;9.20;6.40;;;;;;;6.26;100.00;99084.22;5096566;28;20070;-95
2023/03/13 06:37:44;;;;;;;12.27;6.55;;;;;;;6.27;100.00;99064.88;5097587;28;20067;-94
2023/03/13 06:40:11;;;;;;;11.68;6.90;;;;;;;6.28;100.00;99071.91;5097444;28;20068;-95
2023/03/13 06:42:39;;;;;;;13.50;6.90;;;;;;;6.29;100.00;99068.41;5096567;28;20047;-95
2023/03/13 06:45:06;;;;;;;14.65;8.00;;;;;;;6.50;100.00;99082.34;5096422;28;20093;-94
2023/03/13 06:47:32;;;;;;;19.38;7.40;;;;;;;6.41;100.00;99056.00;5098946;28;20047;-94
2023/03/13 06:49:58;;;;;;;12.52;7.55;;;;;;;6.68;100.00;99091.94;5097050;28;20440;-95
2023/03/13 06:52:24;;;;;;;19.20;8.57;;;;;;;6.74;100.00;99083.97;5097000;28;20051;-94
2023/03/13 06:54:50;;;;;;;14.50;7.95;;;;;;;6.77;100.00;99074.25;5096922;28;20071;-95
2023/03/13 06:57:16;;;;;;;13.23;7.55;;;;;;;6.89;100.00;99090.91;5098077;28;20133;-93
2023/03/13 06:59:43;;;;;;;10.93;6.70;;;;;;;7.14;100.00;99113.66;5096098;28;20054;-94
2023/03/13 07:02:10;;;;;;;12.45;7.60;;;;;;;7.20;100.00;99099.50;5095339;28;20036;-94
2023/03/13 07:04:36;;;;;;;18.10;8.00;;;;;;;7.40;100.00;99115.22;5096141;28;20043;-94
2023/03/13 07:07:02;;;;;;;11.90;7.18;;;;;;;7.41;100.00;99103.72;5096800;28;20070;-94
2023/03/13 07:09:29;;;;;;;9.65;6.68;;;;;;;7.57;100.00;99109.78;5095819;28;20036;-94
2023/03/13 07:11:56;;;;;;;12.07;6.68;;;;;;;7.88;100.00;99128.00;5096186;28;20058;-94
2023/03/13 07:14:22;;;;;;;14.45;7.00;;;;;;;7.95;100.00;99116.44;5096018;28;20040;-95
2023/03/13 07:16:49;;;;;;;8.68;6.65;;;;;;;8.08;100.00;99109.22;5095645;28;20040;-94
2023/03/13 07:19:15;;;;;;;12.57;6.40;;;;;;;8.32;100.00;99130.13;5096295;28;20098;-95
2023/03/13 07:21:42;;;;;;;10.35;7.20;;;;;;;8.40;100.00;99101.78;5095941;28;20072;-94
2023/03/13 07:24:08;;;;;;;11.85;7.38;;;;;;;8.56;100.00;99104.22;5096176;28;20062;-93
2023/03/13 07:26:34;;;;;;;10.48;6.82;;;;;;;8.90;99.66;99124.97;5095520;28;20048;-94
2023/03/13 07:29:00;;;;;;;9.00;6.20;;;;;;;9.06;99.13;99118.53;5095288;28;20135;-95
2023/03/13 07:31:29;;;;;;;9.93;5.75;;;;;;;9.29;93.88;99115.53;5096575;28;20088;-95
2023/03/13 07:33:56;;;;;;;7.03;5.20;;;;;;;9.51;92.38;99126.66;5095887;28;20452;-93
2023/03/13 07:36:22;;;;;;;10.40;5.60;;;;;;;9.64;92.04;99125.53;5095206;28;20044;-95
2023/03/13 07:38:48;;;;;;;10.18;5.55;;;;;;;9.54;92.87;99112.44;5095045;28;20109;-93
2023/03/13 07:41:14;;;;;;;10.35;5.80;;;;;;;9.81;95.53;99125.25;5095014;28;20138;-94
2023/03/13 07:43:40;;;;;;;10.32;4.95;;;;;;;9.87;92.76;99101.22;5095231;28;20044;-93
2023/03/13 07:46:09;;;;;;;8.00;5.50;;;;;;;10.08;92.45;99107.00;5094465;28;20048;-93
2023/03/13 07:48:37;;;;;;;9.52;5.32;;;;;;;10.33;90.99;99118.06;5095183;28;20135;-93
2023/03/13 07:51:07;;;;;;;9.73;5.15;;;;;;;10.66;86.53;99128.91;5095271;28;20134;-95
2023/03/13 07:53:33;;;;;;;7.15;5.10;;;;;;;10.75;85.41;99112.72;5094931;28;20063;-95
2023/03/13 07:56:01;;;;;;;10.23;4.90;;;;;;;10.79;82.18;99105.56;5096224;28;20040;-93
2023/03/13 07:58:29;;;;;;;9.45;4.55;;;;;;;11.00;82.05;99121.06;5094733;28;20040;-93
2023/03/13 08:00:56;;;;;;;9.98;4.90;;;;;;;11.00;84.27;99120.19;5094319;28;20048;-94
2023/03/13 08:03:23;;;;;;;7.03;4.68;;;;;;;11.02;84.52;99102.41;5094625;28;20051;-94
2023/03/13 08:05:57;;;;;;;8.05;4.65;;;;;;;11.19;82.66;99107.28;5095804;28;20050;-94
2023/03/13 08:08:24;;;;;;;8.10;4.82;;;;;;;11.20;83.38;99115.25;5095757;28;20071;-94
2023/03/13 08:10:50;;;;;;;7.55;4.72;;;;;;;11.45;84.24;99106.66;5095409;28;20382;-95
2023/03/13 08:13:16;;;;;;;10.52;5.03;;;;;;;11.52;82.84;99110.94;5094570;28;20044;-95
2023/03/13 08:15:41;;;;;;;8.05;5.05;;;;;;;11.77;81.59;99112.94;5096845;28;20082;-94
2023/03/13 08:18:07;;;;;;;11.38;5.00;;;;;;;12.01;80.86;99122.09;5095021;28;20040;-94
2023/03/13 08:20:33;;;;;;;10.23;5.28;;;;;;;12.05;78.81;99119.31;5098307;28;20047;-93
2023/03/13 08:22:59;;;;;;;8.05;4.70;;;;;;;12.15;79.04;99111.94;5096719;28;20062;-94
2023/03/13 08:25:26;;;;;;;12.27;5.35;;;;;;;12.23;77.36;99085.03;5097263;28;20524;-94
2023/03/13 08:27:53;;;;;;;8.75;4.85;;;;;;;12.60;74.70;99113.31;5098067;28;20036;-94
2023/03/13 08:30:20;;;;;;;7.13;4.60;;;;;;;12.68;73.12;99093.47;5095671;28;20048;-95
2023/03/13 08:32:45;;;;;;;8.32;4.38;;;;;;;12.57;74.78;99102.75;5095594;28;20579;-94
2023/03/13 08:35:11;;;;;;;8.07;4.85;;;;;;;12.71;74.26;99106.75;5095300;28;20071;-96
2023/03/13 08:37:37;;;;;;;9.15;5.18;;;;;;;12.80;73.63;99097.59;5094273;28;20074;-95
2023/03/13 08:40:09;;;;;;;8.65;4.57;;;;;;;13.04;71.64;99121.78;5093943;28;20549;-94
2023/03/13 08:42:37;;;;;;;6.60;3.95;;;;;;;13.04;69.56;99103.09;5094217;28;20134;-93
2023/03/13 08:45:04;;;;;;;8.05;4.00;;;;;;;13.28;69.54;99114.78;5093939;28;20044;-96
2023/03/13 08:47:30;;;;;;;8.65;4.30;;;;;;;13.36;70.65;99110.09;5093816;28;20048;-95
2023/03/13 08:49:56;;;;;;;10.20;4.50;;;;;;;13.47;68.24;99101.72;5093264;28;20043;-94
2023/03/13 08:52:22;;;;;;;7.20;4.00;;;;;;;13.67;66.99;99125.97;5095222;28;20443;-96
2023/03/13 08:54:48;;;;;;;8.18;4.07;;;;;;;13.78;66.90;99120.25;5094318;28;20040;-94
2023/03/13 08:57:15;;;;;;;8.68;4.07;;;;;;;13.83;66.92;99115.59;5094719;28;20517;-94
2023/03/13 08:59:42;;;;;;;6.65;3.67;;;;;;;13.96;65.60;99114.25;5095373;28;20043;-95
2023/03/13 09:02:08;;;;;;;7.32;3.53;;;;;;;13.95;63.50;99107.16;5094092;28;20572;-94
2023/03/13 09:04:34;;;;;;;7.53;3.50;;;;;;;14.12;63.63;99114.59;5096055;28;20044;-94
2023/03/13 09:07:00;;;;;;;5.80;3.55;;;;;;;14.11;61.72;99106.59;5095075;28;20131;-96
2023/03/13 09:09:26;;;;;;;5.55;3.45;;;;;;;14.23;63.47;99113.34;5093286;28;20047;-92
2023/03/13 09:11:52;;;;;;;6.90;3.80;;;;;;;14.18;63.15;99087.63;5094061;28;20044;-94
2023/03/13 09:14:18;;;;;;;6.95;3.70;;;;;;;14.25;62.63;99090.03;5093606;28;20058;-93
2023/03/13 09:16:47;;;;;;;7.35;4.18;;;;;;;14.10;63.69;99100.41;5093290;28;20040;-94
2023/03/13 09:19:13;;;;;;;6.28;4.10;;;;;;;13.81;64.21;99080.03;5093316;28;20032;-93
2023/03/13 09:21:39;;;;;;;6.72;4.40;;;;;;;13.97;65.42;99104.44;5093381;28;20036;-94
2023/03/13 09:24:05;;;;;;;12.40;4.55;;;;;;;14.12;64.58;99098.53;5093529;28;20040;-93
2023/03/13 09:26:31;;;;;;;6.78;4.28;;;;;;;14.16;64.04;99077.88;5093162;28;20043;-93
2023/03/13 09:28:57;;;;;;;10.95;4.35;;;;;;;14.48;63.10;99083.84;5092933;28;20051;-92
2023/03/13 09:31:24;;;;;;;6.93;3.83;;;;;;;14.66;63.21;99087.66;5092677;28;20134;-93
2023/03/13 09:33:52;;;;;;;9.18;4.78;;;;;;;14.74;63.11;99082.88;5093263;28;20050;-93
2023/03/13 09:36:19;;;;;;;8.23;4.85;;;;;;;14.75;63.56;99073.94;5093046;28;20066;-93
2023/03/13 09:38:45;;;;;;;10.77;5.28;;;;;;;14.80;62.86;99085.31;5093212;28;20097;-94
2023/03/13 09:41:23;;;;;;;6.88;4.60;;;;;;;14.89;64.23;99068.03;5093441;28;20489;-94
2023/03/13 09:43:53;;;;;;;7.88;4.85;;;;;;;14.99;64.22;99072.06;5093053;28;20131;-95
2023/03/13 09:46:24;;;;;;;10.20;4.88;;;;;;;14.68;65.51;99083.09;5092251;28;20493;-94
2023/03/13 09:48:56;;;;;;;9.32;4.93;;;;;;;14.86;65.85;99090.44;5090597;28;20136;-94
2023/03/13 09:51:27;;;;;;;9.88;5.05;;;;;;;14.96;65.31;99090.94;5085846;28;20056;-93
2023/03/13 09:53:58;;;;;;;9.40;5.72;;;;;;;14.89;65.93;99074.25;5092724;28;20056;-94
2023/03/13 09:56:29;;;;;;;11.05;6.00;;;;;;;15.14;66.38;99082.16;5093359;28;20036;-95
2023/03/13 09:59:00;;;;;;;9.90;5.80;;;;;;;15.21;65.34;99069.41;5093563;28;20068;-95
2023/03/13 10:01:30;;;;;;;9.00;5.80;;;;;;;15.45;65.55;99082.72;5094365;28;20036;-96
2023/03/13 10:04:06;;;;;;;12.48;5.63;;;;;;;15.64;64.46;99091.72;5093589;28;20044;-94
2023/03/13 10:06:38;;;;;;;10.05;5.45;;;;;;;15.66;64.40;99097.88;5093273;28;20071;-95
2023/03/13 10:09:15;;;;;;;9.27;5.43;;;;;;;15.69;65.13;99092.38;5093570;28;20044;-96
2023/03/13 10:11:46;;;;;;;8.40;5.50;;;;;;;15.56;65.62;99080.44;5094302;28;20109;-96
2023/03/13 10:14:19;;;;;;;10.18;5.30;;;;;;;15.74;65.02;99076.13;5093482;28;20105;-95
2023/03/13 10:16:53;;;;;;;9.23;5.85;;;;;;;15.69;65.52;99057.53;5092400;28;20041;-94
2023/03/13 10:19:26;;;;;;;9.07;5.53;;;;;;;15.98;64.57;99076.88;5093206;28;20066;-94
2023/03/13 10:21:54;;;;;;;10.93;5.20;;;;;;;15.83;64.38;99067.72;5093368;28;20435;-96
2023/03/13 10:24:30;;;;;;;10.02;5.57;;;;;;;16.09;65.34;99077.28;5092731;28;20071;-94
2023/03/13 10:26:57;;;;;;;11.68;5.95;;;;;;;16.20;64.24;99072.31;5072694;28;20569;-94
2023/03/13 10:29:24;;;;;;;14.52;6.82;;;;;;;16.02;64.79;99057.88;5072365;28;20084;-94
2023/03/13 10:31:56;;;;;;;14.43;5.43;;;;;;;16.00;64.95;99067.84;5084839;28;20040;-94
2023/03/13 10:34:24;;;;;;;13.07;6.63;;;;;;;16.15;65.09;99046.59;5092768;28;20513;-95
2023/03/13 10:36:57;;;;;;;14.90;7.65;;;;;;;16.04;64.75;99044.41;5094042;28;20050;-95
2023/03/13 10:39:24;;;;;;;10.60;6.00;;;;;;;15.95;65.40;99029.59;5096136;28;20036;-94
2023/03/13 10:41:56;;;;;;;10.82;6.05;;;;;;;16.22;65.29;99040.91;5097026;28;20101;-93
2023/03/13 10:44:28;;;;;;;10.98;6.03;;;;;;;16.41;65.74;99038.22;5095925;28;20048;-94
2023/03/13 10:47:00;;;;;;;12.95;5.70;;;;;;;16.55;64.38;99031.34;5096854;28;20067;-95
2023/03/13 10:49:28;;;;;;;14.00;6.18;;;;;;;16.64;65.07;99023.72;5096501;28;20044;-94
2023/03/13 10:51:57;;;;;;;11.90;5.63;;;;;;;16.97;63.37;99041.88;5097567;28;20071;-95
2023/03/13 10:54:24;;;;;;;;;;;;;;;17.08;62.10;99045.84;5096752;28;20033;-92
2023/03/13 10:56:50;;;;;;;9.60;4.15;;;;;;;17.13;60.97;99042.00;5098716;28;19956;-95
2023/03/13 10:59:21;;;;;;;10.68;5.07;;;;;;;17.09;60.89;99009.97;5100683;28;20089;-95
2023/03/13 11:01:48;;;;;;;8.90;4.00;;;;;;;17.28;60.69;99042.16;5099051;28;20036;-95
2023/03/13 11:04:20;;;;;;;9.38;4.20;;;;;;;17.34;60.65;99010.47;5097858;28;20539;-95
2023/03/13 11:06:51;;;;;;;8.82;4.40;;;;;;;17.54;59.29;98997.81;5101161;28;20048;-94
2023/03/13 11:09:28;;;;;;;10.88;4.07;;;;;;;17.77;59.87;99023.53;5105309;28;20043;-96
2023/03/13 11:12:03;;;;;;;7.75;4.10;;;;;;;17.77;59.15;98984.03;5103452;28;20048;-96
2023/03/13 11:14:29;;;;;;;11.23;4.70;;;;;;;17.80;58.71;98996.44;5104880;28;20044;-96
2023/03/13 11:17:08;;;;;;;9.27;4.28;;;;;;;18.10;58.21;98996.66;5109526;28;20058;-96
2023/03/13 11:19:59;;;;;;;7.32;3.80;;;;;;;18.27;56.04;98983.16;5105006;28;20051;-96
2023/03/13 11:22:39;;;;;;;10.73;4.18;;;;;;;18.36;55.43;98987.16;5100195;28;20083;-95
2023/03/13 11:25:27;;;;;;;9.32;4.20;;;;;;;18.34;55.46;98994.44;5102002;28;20102;-95
2023/03/13 11:28:04;;;;;;;8.02;4.15;;;;;;;18.32;55.60;98992.81;5100675;28;20043;-94
2023/03/13 11:30:48;;;;;;;9.38;4.97;;;;;;;18.08;55.73;98976.19;5101529;28;20048;-95